Altus Air Force Base, OK

11:30 PM CDT on October 22, 2014 (GMT -0500)
Corbin & Russell Addition | Change Station
CLOSE
Current Station
Personal Weather Station
Location: Altus, OK
Elevation: 1407 ft
Nearby Weather Stations

Elev 1407 ft 34.65 °N, 99.34 °W | Updated 7 seconds ago

Scattered Clouds
Scattered Clouds
61.9 °F
Feels Like 61.9 °F
N
1.0
Wind Variable Wind from SE
Gusts 2.0 mph

Today
High -- | Low -- °F
--% Chance of Precip.
Yesterday
High -- | Low -- °F
Precip. -- in
7:48 AM 6:54 PM
Waning Crescent, 1% visible
Pressure 30.12 in
Visibility 5.0 miles
Clouds Scattered Clouds 7000 ft
Dew Point 61 °F
Humidity 98%
Rainfall 0.07 in
Snow Depth Not available.
UV 0 out of 12
Pollen 5.50 out of 12
Air Quality Not available.
Flu Activity No Activity
METAR KAXS 230415Z AUTO 00000KT 5SM BR SCT070 16/15 A3012 RMK AO2 T01630146

More Conditions Fewer Conditions

Pressure 30.12 in
Visibility 5.0 miles
Clouds Scattered Clouds 7000 ft
Dew Point 61 °F
Humidity 98%
Rainfall 0.07 in
Snow Depth Not available.
UV 0 out of 12
Pollen 5.50 out of 12
Air Quality Not available.
Flu Activity No Activity
METAR KAXS 230415Z AUTO 00000KT 5SM BR SCT070 16/15 A3012 RMK AO2 T01630146

More Conditions Fewer Conditions

10-Day Weather Forecast

Almanac

Astronomy

Oct. 22, 2014 Rise Set
Actual Time 7:48 AM CDT 6:54 PM CDT
Civil Twilight 7:23 AM CDT 7:19 PM CDT
Nautical Twilight 6:53 AM CDT 7:49 PM CDT
Astronomical Twilight 6:24 AM CDT 8:18 PM CDT
Moon 6:34 AM CDT (10/22) 6:19 PM CDT (10/22)
Length of Visible Light 11h 56m
Length of Day
11h 05m
Tomorrow will be 2m 1s shorter.
Waning Crescent, 1% of the Moon is Illuminated
Oct 23
Waning Crescent
Oct 23
New
Oct 30
First Quarter
Nov 6
Full
Nov 14
Last Quarter

Yesterday's Extremes

State Highs State Lows

Community

WunderPhotos

Upload Photos

1,764,154 photos uploaded!

Nearby

Snow Depth

Station Depth Elevation
No new snow has been reported.

Earthquake Activity

City Distance Mag. Time & Date
Crescent, Oklahoma 138 miles 2.7 9:58 PM CDT
2014-10-22
Mooreland, Oklahoma 127 miles 2.8 5:31 PM CDT
2014-10-22
Mooreland, Oklahoma 126 miles 2.5 11:19 AM CDT
2014-10-22
Mooreland, Oklahoma 127 miles 2.8 11:04 AM CDT
2014-10-22
Minimum magnitude displayed is 2.5.

Coastal Water Temperatures

Place Temperature
No Stations Reporting

Nearby Weather Stations